Time;durP1;ratioP1;P1;durP2;ratioP2;P2;SDS_P1;SDS_P2;PMS_P1;PMS_P2;Temp;Humidity;BMP_temperature;BMP_pressure;BME280_temperature;BME280_humidity;BME280_pressure;Samples;Min_cycle;Max_cycle;Signal;HPM_P1;HPM_P2
2023/05/29 00:01:24;;;;;;;5.60;4.00;;;;;;;9.02;63.13;100875.34;220796;1238;67067;-74
2023/05/29 00:06:15;;;;;;;8.60;5.10;;;;;;;8.94;63.31;100873.41;220813;1235;60484;-73
2023/05/29 00:11:08;;;;;;;6.10;4.70;;;;;;;8.88;63.30;100867.71;220914;1235;60998;-75
2023/05/29 00:16:00;;;;;;;11.20;4.80;;;;;;;8.84;63.24;100865.86;220751;1239;60536;-74
2023/05/29 00:20:52;;;;;;;8.50;4.80;;;;;;;8.71;63.30;100865.00;220803;1239;60435;-74
2023/05/29 00:25:44;;;;;;;6.00;4.40;;;;;;;8.68;63.73;100866.66;220843;1239;60455;-74
2023/05/29 00:30:36;;;;;;;4.90;4.10;;;;;;;8.64;63.88;100866.02;220830;1239;60633;-74
2023/05/29 00:35:27;;;;;;;7.60;4.80;;;;;;;8.57;63.93;100865.86;220732;1239;71941;-73
2023/05/29 00:40:19;;;;;;;7.40;4.70;;;;;;;8.49;64.02;100866.34;220930;1235;60573;-74
2023/05/29 00:45:10;;;;;;;7.40;3.90;;;;;;;8.46;64.16;100869.31;220923;1239;60527;-73
2023/05/29 00:50:03;;;;;;;10.20;4.90;;;;;;;8.43;64.20;100867.37;220696;1235;60514;-74
2023/05/29 00:54:56;;;;;;;7.30;4.60;;;;;;;8.40;64.41;100865.33;220913;1239;60518;-74
2023/05/29 00:59:47;;;;;;;9.80;5.40;;;;;;;8.32;64.31;100865.81;220872;1235;60443;-74
2023/05/29 01:04:39;;;;;;;10.90;6.20;;;;;;;8.26;64.31;100867.17;220837;1239;60475;-74
2023/05/29 01:09:31;;;;;;;7.60;4.90;;;;;;;8.21;64.53;100866.35;220863;1235;60432;-74
2023/05/29 01:14:29;;;;;;;13.10;4.80;;;;;;;8.16;64.72;100862.40;220829;1239;74812;-74
2023/05/29 01:19:42;;;;;;;9.30;6.80;;;;;;;8.09;64.63;100863.74;220792;1235;72248;-74
2023/05/29 01:24:46;;;;;;;8.60;5.00;;;;;;;8.01;64.63;100860.42;220854;1235;60474;-74
2023/05/29 01:29:42;;;;;;;8.70;5.60;;;;;;;7.93;64.97;100860.70;220818;1239;66818;-74
2023/05/29 01:34:35;;;;;;;7.00;4.90;;;;;;;7.89;65.31;100860.39;220834;1239;60463;-74
2023/05/29 01:39:28;;;;;;;8.70;5.50;;;;;;;7.83;65.36;100859.35;220810;1238;74507;-74
2023/05/29 01:44:21;;;;;;;7.10;5.40;;;;;;;7.75;65.24;100863.41;220889;1235;60671;-74
2023/05/29 01:49:13;;;;;;;11.40;5.80;;;;;;;7.70;65.54;100873.46;220776;1234;60478;-74
2023/05/29 01:54:05;;;;;;;5.80;5.00;;;;;;;7.68;65.61;100874.77;220913;1239;60454;-74
2023/05/29 01:58:58;;;;;;;7.60;4.90;;;;;;;7.63;65.40;100867.39;220884;1236;60478;-74
2023/05/29 02:03:51;;;;;;;6.80;4.80;;;;;;;7.62;65.80;100862.17;220857;1239;60562;-74
2023/05/29 02:08:43;;;;;;;7.70;5.10;;;;;;;7.61;65.64;100859.05;220813;1236;60569;-74
2023/05/29 02:13:34;;;;;;;7.00;4.80;;;;;;;7.55;65.65;100852.14;220803;1235;60414;-74
2023/05/29 02:18:26;;;;;;;8.60;5.10;;;;;;;7.52;65.83;100855.15;220783;1239;73711;-74
2023/05/29 02:23:19;;;;;;;7.00;5.20;;;;;;;7.47;65.68;100848.23;220840;1235;60484;-74
2023/05/29 02:28:11;;;;;;;8.10;5.60;;;;;;;7.41;65.64;100845.83;220780;1235;60423;-74
2023/05/29 02:33:04;;;;;;;5.80;4.10;;;;;;;7.36;65.80;100842.55;220920;1239;60611;-73
2023/05/29 02:37:58;;;;;;;9.50;5.00;;;;;;;7.35;65.94;100832.17;220907;1235;73065;-74
2023/05/29 02:42:50;;;;;;;7.80;4.80;;;;;;;7.33;65.81;100828.14;220849;1235;60487;-74
2023/05/29 02:47:42;;;;;;;9.60;4.60;;;;;;;7.32;65.93;100825.16;220967;1235;60478;-75
2023/05/29 02:52:33;;;;;;;6.10;4.20;;;;;;;7.29;65.92;100827.85;220858;1235;72487;-74
2023/05/29 02:57:25;;;;;;;9.00;4.60;;;;;;;7.26;65.93;100829.83;220820;1236;60461;-74
2023/05/29 03:02:18;;;;;;;6.90;4.60;;;;;;;7.29;66.07;100831.98;220905;1235;60654;-74
2023/05/29 03:07:10;;;;;;;7.70;4.60;;;;;;;7.32;66.09;100833.79;220789;1236;60449;-74
2023/05/29 03:12:03;;;;;;;5.00;4.40;;;;;;;7.34;66.04;100833.67;220881;1236;61074;-74
2023/05/29 03:16:56;;;;;;;7.40;4.60;;;;;;;7.36;66.20;100839.09;220832;1235;60504;-74
2023/05/29 03:21:47;;;;;;;6.70;5.00;;;;;;;7.42;66.27;100836.89;220938;1239;60465;-73
2023/05/29 03:26:40;;;;;;;7.30;4.50;;;;;;;7.62;66.41;100835.95;220889;1235;60616;-74
2023/05/29 03:31:32;;;;;;;8.50;4.90;;;;;;;8.06;66.23;100835.71;220947;1235;72397;-73
2023/05/29 03:36:23;;;;;;;5.80;4.70;;;;;;;8.33;65.72;100836.48;220787;1235;60417;-73
2023/05/29 03:41:15;;;;;;;8.80;4.50;;;;;;;8.29;65.53;100838.27;220956;1234;60452;-74
2023/05/29 03:46:07;;;;;;;7.70;4.60;;;;;;;8.24;65.41;100840.01;220850;1235;71492;-74
2023/05/29 03:50:59;;;;;;;8.50;4.90;;;;;;;8.26;65.77;100840.94;220916;1236;60460;-74
2023/05/29 03:55:55;;;;;;;6.60;4.50;;;;;;;8.23;65.97;100843.45;220730;1235;65135;-73
2023/05/29 04:00:47;;;;;;;7.20;5.30;;;;;;;8.24;66.36;100846.92;220901;1235;60529;-73
2023/05/29 04:05:40;;;;;;;11.90;5.70;;;;;;;8.32;66.58;100857.34;221050;1235;60568;-74
2023/05/29 04:10:34;;;;;;;9.40;5.30;;;;;;;8.33;66.51;100859.27;220999;1236;60438;-74
2023/05/29 04:15:25;;;;;;;8.90;5.20;;;;;;;8.40;66.92;100861.71;221038;1235;60434;-74
2023/05/29 04:20:18;;;;;;;8.30;5.10;;;;;;;8.49;67.12;100861.48;220824;1235;61117;-74
2023/05/29 04:25:10;;;;;;;14.90;5.70;;;;;;;8.54;67.02;100860.95;220914;1237;60565;-73
2023/05/29 04:30:02;;;;;;;6.30;4.20;;;;;;;8.64;67.40;100863.10;220889;1235;65847;-74
2023/05/29 04:35:01;;;;;;;9.20;4.70;;;;;;;8.74;67.77;100864.91;220707;1239;60530;-73
2023/05/29 04:39:53;;;;;;;13.60;6.20;;;;;;;8.81;67.51;100863.20;220772;1239;73698;-73
2023/05/29 04:44:49;;;;;;;7.80;5.00;;;;;;;8.88;67.95;100860.96;220817;1235;71573;-73
2023/05/29 04:49:41;;;;;;;9.10;4.60;;;;;;;9.01;68.20;100866.31;220732;1235;60475;-74
2023/05/29 04:54:33;;;;;;;10.40;5.50;;;;;;;9.15;68.48;100863.04;220827;1235;60455;-73
2023/05/29 04:59:26;;;;;;;8.20;5.20;;;;;;;9.31;68.64;100865.67;220691;1235;60578;-73
2023/05/29 05:04:18;;;;;;;9.10;4.90;;;;;;;9.51;68.88;100867.36;220841;1235;60503;-73
2023/05/29 05:09:10;;;;;;;9.60;4.70;;;;;;;9.71;68.77;100864.20;220822;1235;60459;-73
2023/05/29 05:14:03;;;;;;;13.70;4.60;;;;;;;9.92;68.80;100861.03;220750;1237;73943;-73
2023/05/29 05:18:56;;;;;;;7.50;4.40;;;;;;;10.13;68.67;100856.98;220610;1235;60523;-74
2023/05/29 05:23:48;;;;;;;7.80;4.40;;;;;;;10.37;68.07;100855.58;220859;1237;61084;-73
2023/05/29 05:28:50;;;;;;;4.40;3.40;;;;;;;10.64;67.91;100856.64;220853;1235;65350;-74
2023/05/29 05:33:41;;;;;;;5.40;2.90;;;;;;;10.88;67.21;100851.17;220800;1236;60558;-73
2023/05/29 05:38:34;;;;;;;4.10;2.70;;;;;;;11.15;65.91;100857.36;220669;1235;60503;-73
2023/05/29 05:43:27;;;;;;;6.40;2.60;;;;;;;11.42;64.70;100855.73;223441;1236;59311;-73
2023/05/29 05:48:28;;;;;;;2.90;2.30;;;;;;;11.72;64.09;100852.35;220546;1235;74307;-74
2023/05/29 05:53:21;;;;;;;7.50;2.60;;;;;;;12.03;62.70;100849.52;220656;1235;60497;-74
2023/05/29 05:58:12;;;;;;;4.40;2.40;;;;;;;12.36;62.20;100850.45;220855;1237;60555;-74
2023/05/29 06:03:05;;;;;;;5.00;2.40;;;;;;;12.75;61.84;100849.31;220620;1235;60500;-74
2023/05/29 06:08:15;;;;;;;7.90;3.30;;;;;;;13.10;61.53;100848.42;220933;1236;60482;-74
2023/05/29 06:13:08;;;;;;;6.40;3.30;;;;;;;13.43;60.73;100847.66;220905;1238;73612;-74
2023/05/29 06:18:07;;;;;;;4.00;2.30;;;;;;;13.77;59.79;100847.04;220536;1239;72728;-74
2023/05/29 06:22:59;;;;;;;7.80;2.50;;;;;;;14.19;59.17;100843.40;220676;1235;60456;-74
2023/05/29 06:27:55;;;;;;;8.60;2.60;;;;;;;14.56;58.34;100844.05;220873;1235;65953;-74
2023/05/29 06:32:46;;;;;;;5.80;2.40;;;;;;;15.52;56.27;100838.89;220897;1235;60434;-74
2023/05/29 06:37:38;;;;;;;5.20;2.80;;;;;;;16.08;55.38;100837.55;220991;1235;60539;-74
2023/05/29 06:42:30;;;;;;;3.30;2.10;;;;;;;17.09;53.52;100838.91;220794;1236;60381;-74
2023/05/29 06:47:23;;;;;;;4.30;1.70;;;;;;;17.51;52.15;100832.44;220927;1239;60659;-74
2023/05/29 06:52:15;;;;;;;3.50;2.40;;;;;;;17.60;51.25;100831.64;220869;1234;60562;-76
2023/05/29 06:57:27;;;;;;;10.10;2.20;;;;;;;17.97;49.87;100833.00;220863;1236;60423;-74
2023/05/29 07:02:18;;;;;;;3.50;1.40;;;;;;;18.53;48.79;100830.35;221007;1235;60466;-74
2023/05/29 07:07:13;;;;;;;2.70;2.00;;;;;;;18.63;47.81;100837.97;220941;1236;60536;-74
2023/05/29 07:12:06;;;;;;;2.80;1.60;;;;;;;19.51;46.12;100834.45;221310;1235;60519;-74
2023/05/29 07:16:57;;;;;;;7.60;2.60;;;;;;;19.48;45.94;100831.52;220847;1235;60560;-74
2023/05/29 07:21:49;;;;;;;7.90;1.90;;;;;;;20.28;44.99;100829.43;221012;1235;60908;-74
2023/05/29 07:26:42;;;;;;;4.60;1.70;;;;;;;20.66;44.43;100832.67;220994;1238;72445;-74
2023/05/29 07:31:34;;;;;;;3.00;2.20;;;;;;;22.43;41.70;100828.83;220840;1239;60574;-74
2023/05/29 07:36:31;;;;;;;7.30;2.30;;;;;;;24.59;39.58;100822.34;220890;1239;60454;-75
2023/05/29 07:41:23;;;;;;;4.40;2.20;;;;;;;24.38;39.29;100827.41;221116;1236;60770;-74
2023/05/29 07:46:19;;;;;;;6.40;1.60;;;;;;;27.08;35.41;100824.06;221032;1235;66850;-74
2023/05/29 07:51:13;;;;;;;4.10;1.50;;;;;;;29.52;33.46;100824.05;221107;1235;60420;-74
2023/05/29 07:56:07;;;;;;;7.00;1.90;;;;;;;28.75;32.99;100821.77;220874;1239;74063;-75
2023/05/29 08:00:59;;;;;;;4.80;1.40;;;;;;;28.33;30.95;100823.91;221062;1235;60427;-74
2023/05/29 08:05:50;;;;;;;4.30;1.80;;;;;;;27.71;31.52;100828.88;221190;1234;60462;-74
2023/05/29 08:10:44;;;;;;;5.20;1.40;;;;;;;28.00;30.94;100827.23;221097;1237;72473;-75
2023/05/29 08:15:35;;;;;;;2.50;1.90;;;;;;;30.36;28.47;100818.63;221053;1239;60541;-75
2023/05/29 08:20:27;;;;;;;8.10;2.70;;;;;;;31.90;26.78;100818.33;221055;1239;61137;-75
2023/05/29 08:25:18;;;;;;;3.50;1.80;;;;;;;32.00;26.72;100817.46;221097;1239;61052;-77
2023/05/29 08:30:11;;;;;;;2.70;1.70;;;;;;;30.73;27.43;100822.32;221071;1239;60477;-75
2023/05/29 08:35:04;;;;;;;2.40;1.70;;;;;;;30.49;26.64;100819.08;221111;1238;60462;-75
2023/05/29 08:39:55;;;;;;;4.00;1.90;;;;;;;31.75;25.48;100819.95;221169;1239;60520;-74
2023/05/29 08:44:48;;;;;;;3.60;2.30;;;;;;;33.26;24.35;100828.23;221086;1235;60548;-75
2023/05/29 08:49:43;;;;;;;2.30;1.70;;;;;;;34.88;23.52;100825.28;221078;1236;71780;-75
2023/05/29 08:54:35;;;;;;;3.50;1.60;;;;;;;34.90;23.35;100823.92;221041;1236;71329;-75
2023/05/29 08:59:30;;;;;;;5.00;2.10;;;;;;;31.63;24.52;100819.77;221090;1239;60504;-73
2023/05/29 09:04:22;;;;;;;6.40;2.00;;;;;;;29.45;25.75;100820.16;220861;1237;66708;-75
2023/05/29 09:09:14;;;;;;;3.60;1.80;;;;;;;28.38;25.92;100821.91;221022;1239;60897;-75
2023/05/29 09:14:05;;;;;;;4.90;2.10;;;;;;;27.24;26.49;100823.80;221033;1236;60520;-76
2023/05/29 09:19:07;;;;;;;2.90;2.40;;;;;;;26.96;26.91;100816.79;221048;1236;60498;-76
2023/05/29 09:24:04;;;;;;;4.70;2.20;;;;;;;28.39;25.94;100809.88;221010;1239;73594;-75
2023/05/29 09:28:56;;;;;;;2.70;2.40;;;;;;;29.27;25.65;100793.09;221051;1239;73377;-75
2023/05/29 09:33:49;;;;;;;5.70;2.30;;;;;;;29.36;25.21;100798.02;221033;1236;60461;-75
2023/05/29 09:38:46;;;;;;;5.90;1.70;;;;;;;30.42;25.22;100795.85;221047;1239;60478;-75
2023/05/29 09:43:46;;;;;;;4.90;2.10;;;;;;;32.66;23.19;100786.27;221063;1239;60423;-75
2023/05/29 09:48:38;;;;;;;2.30;1.80;;;;;;;34.29;22.48;100788.69;221056;1236;74985;-75
2023/05/29 09:53:29;;;;;;;3.40;1.90;;;;;;;35.43;21.72;100788.59;221050;1239;60393;-75
2023/05/29 09:58:22;;;;;;;5.30;2.20;;;;;;;36.03;21.23;100778.44;220995;1235;60527;-75
2023/05/29 10:03:14;;;;;;;2.90;2.30;;;;;;;36.35;20.54;100777.02;220823;1235;71819;-75
2023/05/29 10:08:13;;;;;;;6.40;2.40;;;;;;;36.33;20.21;100774.86;220969;1236;60465;-75
2023/05/29 10:13:06;;;;;;;4.60;2.30;;;;;;;36.62;20.02;100773.64;221052;1236;67005;-76
2023/05/29 10:18:12;;;;;;;4.50;2.00;;;;;;;36.72;20.35;100777.42;221153;1239;60308;-77
2023/05/29 10:23:05;;;;;;;1.80;1.70;;;;;;;36.83;20.32;100774.63;221284;1237;74605;-76
2023/05/29 10:27:58;;;;;;;3.40;2.00;;;;;;;37.01;20.23;100774.07;221093;1239;73052;-76
2023/05/29 10:33:21;;;;;;;4.90;2.00;;;;;;;36.96;19.58;100768.36;221243;1239;61268;-76
2023/05/29 10:38:16;;;;;;;4.20;1.90;;;;;;;36.77;20.57;100766.32;221127;1236;160004;-77
2023/05/29 10:43:11;;;;;;;2.40;1.80;;;;;;;36.13;20.60;100764.40;220966;1235;60448;-76
2023/05/29 10:48:11;;;;;;;3.70;2.90;;;;;;;36.06;20.39;100759.63;221029;1234;73159;-76
2023/05/29 10:53:03;;;;;;;3.00;1.90;;;;;;;36.12;20.66;100756.36;221031;1236;72425;-76
2023/05/29 10:57:55;;;;;;;8.20;2.90;;;;;;;35.59;20.51;100756.77;221164;1236;60560;-76
2023/05/29 11:02:47;;;;;;;3.50;1.90;;;;;;;34.43;21.85;100747.59;221342;1239;60468;-76
2023/05/29 11:07:52;;;;;;;7.10;4.00;;;;;;;32.60;22.04;100745.46;221157;1239;60478;-76
2023/05/29 11:12:57;;;;;;;7.10;2.60;;;;;;;31.05;24.12;100738.64;221172;1235;66979;-76
2023/05/29 11:17:50;;;;;;;4.20;2.00;;;;;;;30.21;23.97;100745.92;221246;1239;60408;-74
2023/05/29 11:22:48;;;;;;;3.60;1.90;;;;;;;29.53;24.84;100739.33;221211;1236;73768;-75
2023/05/29 11:27:40;;;;;;;3.20;2.30;;;;;;;29.07;25.17;100736.80;221154;1239;73676;-77
2023/05/29 11:32:36;;;;;;;5.90;3.00;;;;;;;28.81;25.08;100730.45;220990;1235;60558;-77
2023/05/29 11:37:27;;;;;;;;;;;;;;;28.55;25.12;100725.23;221004;1239;67163;-76
2023/05/29 11:42:19;;;;;;;3.90;2.50;;;;;;;28.42;26.25;100721.64;220945;1239;60466;-76
2023/05/29 11:47:11;;;;;;;8.40;3.70;;;;;;;28.58;26.32;100725.58;221177;1235;60492;-76
2023/05/29 11:52:10;;;;;;;5.00;2.20;;;;;;;28.66;26.10;100733.16;221283;1235;60532;-76
2023/05/29 11:57:05;;;;;;;3.90;2.00;;;;;;;28.42;25.83;100725.88;221305;1235;73576;-76
2023/05/29 12:01:57;;;;;;;4.80;2.40;;;;;;;28.36;26.62;100728.43;221276;1235;60565;-76
2023/05/29 12:06:49;;;;;;;3.50;2.20;;;;;;;28.48;26.04;100719.88;221258;1236;60494;-75
2023/05/29 12:11:40;;;;;;;3.20;2.10;;;;;;;28.60;26.78;100713.70;221260;1237;60896;-75
2023/05/29 12:16:34;;;;;;;5.40;2.50;;;;;;;28.77;26.78;100711.78;221097;1239;60581;-74
2023/05/29 12:21:27;;;;;;;5.50;2.20;;;;;;;28.92;26.25;100712.69;221234;1236;66096;-75
2023/05/29 12:26:20;;;;;;;6.40;2.20;;;;;;;28.96;26.40;100698.40;221220;1238;61788;-75
2023/05/29 12:31:11;;;;;;;2.70;1.80;;;;;;;29.09;26.56;100690.45;221212;1235;60507;-75
2023/05/29 12:36:10;;;;;;;3.20;2.00;;;;;;;29.23;26.64;100692.27;221186;1236;60545;-75
2023/05/29 12:41:02;;;;;;;2.60;1.80;;;;;;;29.31;26.24;100683.44;221165;1236;60521;-74
2023/05/29 12:45:56;;;;;;;3.30;2.00;;;;;;;29.42;25.36;100689.31;221240;1239;60475;-75
2023/05/29 12:50:49;;;;;;;4.10;1.90;;;;;;;29.52;26.21;100688.15;221221;1239;60471;-75
2023/05/29 12:55:42;;;;;;;4.70;2.00;;;;;;;29.43;25.20;100687.67;221223;1237;74249;-75
2023/05/29 13:00:39;;;;;;;7.20;2.50;;;;;;;28.88;25.91;100687.58;221225;1239;72973;-75
2023/05/29 13:05:31;;;;;;;7.20;2.40;;;;;;;28.83;25.82;100679.34;221207;1238;60407;-75
2023/05/29 13:10:23;;;;;;;4.40;2.20;;;;;;;28.98;25.30;100675.40;221289;1239;60628;-74
2023/05/29 13:15:14;;;;;;;3.90;2.30;;;;;;;28.93;25.22;100669.82;221264;1239;60446;-75
2023/05/29 13:20:11;;;;;;;2.20;1.80;;;;;;;28.81;24.85;100670.69;221222;1239;66596;-75
2023/05/29 13:25:03;;;;;;;6.60;1.90;;;;;;;28.41;25.92;100666.47;221028;1236;60704;-75
2023/05/29 13:29:55;;;;;;;3.70;2.20;;;;;;;28.15;25.48;100660.48;221198;1235;60414;-75
2023/05/29 13:34:47;;;;;;;6.80;2.00;;;;;;;27.67;25.53;100658.52;221186;1235;60546;-75
2023/05/29 13:39:38;;;;;;;5.70;2.80;;;;;;;26.93;26.35;100656.40;221300;1237;60446;-75
2023/05/29 13:44:30;;;;;;;2.70;2.20;;;;;;;27.21;26.60;100656.71;221166;1238;72787;-75
2023/05/29 13:49:21;;;;;;;7.00;2.80;;;;;;;27.97;26.18;100654.00;221272;1239;61070;-75
2023/05/29 13:54:14;;;;;;;5.60;3.00;;;;;;;28.47;26.30;100634.73;221251;1236;60491;-75
2023/05/29 13:59:06;;;;;;;4.80;2.70;;;;;;;28.75;25.93;100649.84;221200;1239;60520;-76
2023/05/29 14:03:57;;;;;;;4.60;2.70;;;;;;;28.77;25.58;100648.48;221217;1237;60733;-75
2023/05/29 14:08:49;;;;;;;6.00;2.60;;;;;;;28.62;25.37;100643.18;221334;1238;60456;-75
2023/05/29 14:13:40;;;;;;;6.60;2.60;;;;;;;28.60;25.06;100645.58;221171;1239;65751;-75
2023/05/29 14:18:32;;;;;;;2.90;2.20;;;;;;;28.48;24.72;100646.44;221159;1239;60980;-75
2023/05/29 14:23:23;;;;;;;6.40;2.20;;;;;;;28.42;25.58;100639.63;221254;1236;60459;-75
2023/05/29 14:28:15;;;;;;;4.60;2.40;;;;;;;27.63;25.34;100644.12;221188;1239;60452;-75
2023/05/29 14:33:06;;;;;;;5.40;1.80;;;;;;;26.77;25.86;100638.89;221167;1235;60431;-75
2023/05/29 14:37:58;;;;;;;8.10;2.60;;;;;;;26.24;27.16;100641.02;221204;1235;60792;-75
2023/05/29 14:42:50;;;;;;;6.20;2.40;;;;;;;25.92;27.13;100636.02;221161;1235;74321;-75
2023/05/29 14:47:41;;;;;;;4.50;2.20;;;;;;;26.14;27.28;100631.56;221145;1236;60173;-75
2023/05/29 14:52:33;;;;;;;6.70;2.50;;;;;;;26.41;27.05;100623.13;221223;1240;60466;-75
2023/05/29 14:57:26;;;;;;;5.00;2.20;;;;;;;26.88;27.27;100618.77;221008;1237;73602;-75
2023/05/29 15:02:17;;;;;;;3.50;2.60;;;;;;;27.15;26.81;100620.91;221152;1235;60470;-75
2023/05/29 15:07:09;;;;;;;11.60;3.50;;;;;;;27.40;26.63;100622.43;221222;1239;60446;-75
2023/05/29 15:12:03;;;;;;;10.50;3.10;;;;;;;27.53;26.04;100614.42;221127;1239;60538;-75
2023/05/29 15:16:57;;;;;;;5.70;2.60;;;;;;;27.53;26.28;100616.02;221145;1235;68032;-75
2023/05/29 15:21:49;;;;;;;3.70;2.30;;;;;;;27.59;27.37;100614.95;221136;1238;60452;-75
2023/05/29 15:26:45;;;;;;;5.10;2.80;;;;;;;27.50;27.15;100614.21;221180;1240;60536;-75
2023/05/29 15:31:37;;;;;;;6.10;3.10;;;;;;;27.31;26.83;100614.38;221151;1240;72629;-75
2023/05/29 15:36:29;;;;;;;3.60;2.00;;;;;;;27.10;27.41;100611.95;221178;1235;60627;-76
2023/05/29 15:41:20;;;;;;;5.90;2.30;;;;;;;26.92;27.51;100608.61;221228;1239;60526;-75
2023/05/29 15:46:12;;;;;;;4.20;2.40;;;;;;;26.86;27.60;100606.77;221124;1238;60477;-75
2023/05/29 15:51:04;;;;;;;3.90;2.20;;;;;;;26.67;26.84;100611.30;221151;1235;60475;-75
2023/05/29 15:55:55;;;;;;;5.90;2.30;;;;;;;26.13;27.41;100617.40;221190;1239;60524;-74
2023/05/29 16:00:47;;;;;;;7.80;3.20;;;;;;;25.50;28.18;100623.60;221052;1235;68407;-74
2023/05/29 16:05:40;;;;;;;3.40;2.10;;;;;;;25.01;28.34;100619.58;220951;1240;60442;-75
2023/05/29 16:10:35;;;;;;;5.70;3.60;;;;;;;24.60;29.47;100615.18;220913;1239;73640;-75
2023/05/29 16:15:56;;;;;;;5.20;2.20;;;;;;;24.22;30.21;100611.08;220888;1235;60552;-75
2023/05/29 16:21:17;;;;;;;5.00;3.50;;;;;;;23.86;31.18;100615.70;220806;1239;60404;-75
2023/05/29 16:26:30;;;;;;;4.60;2.90;;;;;;;23.63;31.08;100612.89;221014;1238;68074;-75
2023/05/29 16:31:25;;;;;;;6.70;3.00;;;;;;;23.67;32.25;100611.66;221072;1240;61048;-75
2023/05/29 16:36:36;;;;;;;4.00;2.30;;;;;;;23.72;32.38;100609.70;221080;1239;73980;-75
2023/05/29 16:47:45;;;;;;;3.90;2.60;;;;;;;23.91;32.48;100605.26;220987;1239;61261;-74
2023/05/29 16:52:36;;;;;;;3.40;2.30;;;;;;;23.66;32.63;100601.09;220832;1238;65972;-74
2023/05/29 16:57:29;;;;;;;4.30;2.60;;;;;;;23.50;33.21;100600.48;221004;1239;60524;-74
2023/05/29 17:02:20;;;;;;;9.10;2.70;;;;;;;23.44;34.44;100604.06;220942;1239;60449;-74
2023/05/29 17:07:14;;;;;;;4.00;3.00;;;;;;;23.35;34.26;100603.86;220818;1239;60606;-74
2023/05/29 17:12:07;;;;;;;5.30;2.50;;;;;;;23.18;34.64;100604.13;220915;1239;73281;-74
2023/05/29 17:17:02;;;;;;;17.50;2.60;;;;;;;23.06;34.46;100596.62;220654;1236;71263;-74
2023/05/29 17:21:53;;;;;;;8.10;3.10;;;;;;;22.97;34.76;100601.34;220578;1239;60456;-74
2023/05/29 17:26:45;;;;;;;3.10;2.40;;;;;;;22.90;34.88;100606.55;220817;1239;60513;-74
2023/05/29 17:31:36;;;;;;;8.10;2.80;;;;;;;22.78;34.64;100607.33;220734;1235;61205;-74
2023/05/29 17:36:29;;;;;;;7.60;2.60;;;;;;;22.65;35.78;100606.38;220824;1240;60536;-74
2023/05/29 17:41:20;;;;;;;7.60;2.70;;;;;;;22.48;36.38;100616.48;220789;1239;60500;-74
2023/05/29 17:46:12;;;;;;;8.40;3.30;;;;;;;22.28;36.96;100617.68;220805;1240;67076;-74
2023/05/29 17:51:04;;;;;;;10.00;3.00;;;;;;;22.07;37.30;100620.64;220733;1235;60544;-75
2023/05/29 17:55:56;;;;;;;5.10;2.30;;;;;;;21.87;37.55;100624.27;220594;1235;60585;-73
2023/05/29 18:00:48;;;;;;;5.90;2.30;;;;;;;21.67;37.36;100621.19;220764;1236;60558;-73
2023/05/29 18:05:40;;;;;;;9.30;3.50;;;;;;;21.47;38.61;100620.73;220890;1238;60404;-73
2023/05/29 18:10:31;;;;;;;7.90;3.60;;;;;;;21.24;38.85;100622.77;220865;1239;60450;-73
2023/05/29 18:15:23;;;;;;;15.90;3.90;;;;;;;21.00;39.06;100622.91;220839;1235;72752;-73
2023/05/29 18:20:16;;;;;;;10.50;3.50;;;;;;;20.77;39.89;100624.24;220857;1235;60548;-73
2023/05/29 18:25:08;;;;;;;11.60;3.00;;;;;;;20.53;39.85;100626.59;220635;1234;59194;-73
2023/05/29 18:30:00;;;;;;;4.00;2.80;;;;;;;20.29;40.54;100627.73;220687;1239;60478;-73
2023/05/29 18:34:51;;;;;;;5.60;3.10;;;;;;;20.08;41.21;100632.64;220834;1239;60403;-73
2023/05/29 18:39:43;;;;;;;5.70;3.10;;;;;;;19.90;41.46;100639.92;220841;1235;60471;-74
2023/05/29 18:44:34;;;;;;;7.20;3.20;;;;;;;19.70;42.04;100641.73;220767;1235;60519;-73
2023/05/29 18:49:26;;;;;;;8.70;3.30;;;;;;;19.47;42.42;100642.39;220570;1235;68379;-73
2023/05/29 18:54:19;;;;;;;14.60;3.60;;;;;;;19.28;42.79;100644.38;220691;1235;60538;-73
2023/05/29 18:59:11;;;;;;;7.40;4.20;;;;;;;19.12;43.11;100643.45;220652;1239;60551;-73
2023/05/29 19:04:02;;;;;;;6.20;3.50;;;;;;;18.95;43.98;100651.67;220567;1235;60438;-73
2023/05/29 19:08:54;;;;;;;8.50;3.10;;;;;;;18.74;44.28;100661.34;220403;1239;73343;-72
2023/05/29 19:13:47;;;;;;;8.00;3.80;;;;;;;18.63;43.54;100668.90;220459;1240;60462;-73
2023/05/29 19:18:39;;;;;;;4.90;3.40;;;;;;;18.69;43.38;100666.88;220483;1236;60471;-73
2023/05/29 19:23:30;;;;;;;8.10;3.60;;;;;;;18.80;43.55;100670.02;220587;1235;60548;-73
2023/05/29 19:28:23;;;;;;;5.50;3.40;;;;;;;18.86;43.49;100679.07;221000;1235;60503;-73
2023/05/29 19:33:14;;;;;;;7.30;4.10;;;;;;;18.91;43.41;100686.02;220613;1239;60484;-73
2023/05/29 19:38:06;;;;;;;4.30;3.30;;;;;;;18.89;43.57;100686.04;220649;1235;60420;-73
2023/05/29 19:42:58;;;;;;;5.50;3.00;;;;;;;18.89;43.49;100689.73;220566;1240;66269;-73
2023/05/29 19:47:49;;;;;;;3.50;2.90;;;;;;;18.89;43.61;100693.41;220513;1235;60440;-72
2023/05/29 19:52:41;;;;;;;6.10;3.80;;;;;;;18.85;43.65;100690.67;220654;1235;60638;-73
2023/05/29 19:57:34;;;;;;;4.40;3.30;;;;;;;18.82;43.66;100692.13;220598;1235;60436;-73
2023/05/29 20:02:32;;;;;;;5.80;3.40;;;;;;;18.80;43.81;100697.24;220527;1239;60567;-73
2023/05/29 20:07:24;;;;;;;6.30;3.30;;;;;;;18.74;43.83;100701.38;220459;1235;72474;-73
2023/05/29 20:12:15;;;;;;;6.30;3.30;;;;;;;18.72;44.15;100701.42;220836;1239;61077;-73
2023/05/29 20:17:07;;;;;;;4.90;3.40;;;;;;;18.66;44.39;100704.66;220732;1239;60433;-73
2023/05/29 20:21:58;;;;;;;5.10;3.30;;;;;;;18.59;44.75;100713.03;220807;1235;60468;-73
2023/05/29 20:26:51;;;;;;;8.30;3.50;;;;;;;18.55;44.74;100712.73;220778;1239;60436;-73
2023/05/29 20:31:42;;;;;;;6.80;3.80;;;;;;;18.51;44.82;100716.48;220833;1239;60459;-73
2023/05/29 20:36:36;;;;;;;9.50;4.30;;;;;;;18.45;45.00;100719.75;220774;1235;60544;-73
2023/05/29 20:41:27;;;;;;;6.30;3.80;;;;;;;18.36;45.91;100720.59;220682;1235;60459;-73
2023/05/29 20:46:19;;;;;;;6.50;3.50;;;;;;;18.23;46.89;100731.14;220774;1239;60435;-73
2023/05/29 20:51:12;;;;;;;6.00;4.00;;;;;;;18.08;46.42;100732.74;220859;1235;60510;-73
2023/05/29 20:56:04;;;;;;;6.80;3.30;;;;;;;18.01;46.41;100729.16;220895;1235;73607;-73
2023/05/29 21:00:55;;;;;;;11.90;4.50;;;;;;;17.93;46.40;100732.23;220788;1237;60646;-74
2023/05/29 21:05:48;;;;;;;6.60;3.50;;;;;;;17.87;46.66;100732.67;220726;1239;60574;-73
2023/05/29 21:10:39;;;;;;;8.20;3.30;;;;;;;17.82;46.39;100735.32;220887;1236;61028;-73
2023/05/29 21:15:31;;;;;;;5.30;3.80;;;;;;;17.79;46.51;100734.66;220805;1237;61032;-74
2023/05/29 21:20:22;;;;;;;5.90;3.30;;;;;;;17.75;46.66;100733.13;220913;1235;60418;-73
2023/05/29 21:25:14;;;;;;;7.30;3.90;;;;;;;17.69;46.81;100737.94;220825;1236;60292;-73
2023/05/29 21:30:07;;;;;;;7.50;3.60;;;;;;;17.66;46.73;100736.06;220895;1237;65896;-73
2023/05/29 21:34:59;;;;;;;8.00;3.80;;;;;;;17.61;46.67;100736.81;220978;1235;60427;-73
2023/05/29 21:39:50;;;;;;;3.90;3.10;;;;;;;17.57;46.83;100734.93;220916;1235;60360;-73
2023/05/29 21:44:43;;;;;;;5.00;3.50;;;;;;;17.49;47.15;100729.41;220904;1239;60522;-73
2023/05/29 21:49:35;;;;;;;5.90;2.90;;;;;;;17.40;47.35;100729.16;220925;1236;73590;-73
2023/05/29 21:54:26;;;;;;;8.60;3.30;;;;;;;17.36;47.40;100728.67;220822;1236;60463;-73
2023/05/29 21:59:18;;;;;;;8.70;4.00;;;;;;;17.30;47.65;100728.58;221010;1239;60521;-73
2023/05/29 22:04:10;;;;;;;7.50;3.50;;;;;;;17.26;47.77;100730.54;220669;1239;71269;-73
2023/05/29 22:09:02;;;;;;;8.50;3.80;;;;;;;17.18;49.01;100733.77;220812;1239;60459;-73
2023/05/29 22:13:54;;;;;;;8.50;4.00;;;;;;;17.04;50.00;100731.81;220701;1235;62074;-74
2023/05/29 22:18:47;;;;;;;7.80;3.90;;;;;;;16.94;49.69;100730.50;220680;1236;60446;-74
2023/05/29 22:23:56;;;;;;;9.00;3.50;;;;;;;16.86;50.04;100730.73;220641;1235;67912;-74
2023/05/29 22:28:50;;;;;;;7.80;4.30;;;;;;;16.76;50.37;100737.44;220507;1239;60512;-74
2023/05/29 22:33:42;;;;;;;6.20;3.90;;;;;;;16.67;50.96;100743.45;220677;1235;74567;-74
2023/05/29 22:38:33;;;;;;;5.80;3.90;;;;;;;16.54;51.74;100744.44;220597;1236;143907;-74